sensor_id;sensor_type;location;lat;lon;timestamp;temperature;humidity
7784;DHT22;19359;51.402;6.778;2022-08-20T00:00:11;21.10;99.90
7784;DHT22;19359;51.402;6.778;2022-08-20T00:02:41;21.10;99.90
7784;DHT22;19359;51.402;6.778;2022-08-20T00:05:08;21.00;99.90
7784;DHT22;19359;51.402;6.778;2022-08-20T00:07:35;21.00;99.90
7784;DHT22;19359;51.402;6.778;2022-08-20T00:10:04;21.10;99.90
7784;DHT22;19359;51.402;6.778;2022-08-20T00:12:35;21.10;99.90
7784;DHT22;19359;51.402;6.778;2022-08-20T00:15:05;20.90;99.90
7784;DHT22;19359;51.402;6.778;2022-08-20T00:17:32;21.00;99.90
7784;DHT22;19359;51.402;6.778;2022-08-20T00:20:01;21.00;99.90
7784;DHT22;19359;51.402;6.778;2022-08-20T00:22:28;21.00;99.90
7784;DHT22;19359;51.402;6.778;2022-08-20T00:24:55;21.00;99.90
7784;DHT22;19359;51.402;6.778;2022-08-20T00:27:22;21.00;99.90
7784;DHT22;19359;51.402;6.778;2022-08-20T00:29:49;21.00;99.90
7784;DHT22;19359;51.402;6.778;2022-08-20T00:32:17;21.00;99.90
7784;DHT22;19359;51.402;6.778;2022-08-20T00:34:44;20.90;99.90
7784;DHT22;19359;51.402;6.778;2022-08-20T00:37:12;20.90;99.90
7784;DHT22;19359;51.402;6.778;2022-08-20T00:39:39;20.90;99.90
7784;DHT22;19359;51.402;6.778;2022-08-20T00:42:07;20.80;99.90
7784;DHT22;19359;51.402;6.778;2022-08-20T00:44:34;21.00;99.90
7784;DHT22;19359;51.402;6.778;2022-08-20T00:47:04;21.00;99.90
7784;DHT22;19359;51.402;6.778;2022-08-20T00:49:32;20.90;99.90
7784;DHT22;19359;51.402;6.778;2022-08-20T00:52:04;20.90;99.90
7784;DHT22;19359;51.402;6.778;2022-08-20T00:54:35;21.00;99.90
7784;DHT22;19359;51.402;6.778;2022-08-20T00:57:07;21.00;99.90
7784;DHT22;19359;51.402;6.778;2022-08-20T00:59:36;21.00;99.90
7784;DHT22;19359;51.402;6.778;2022-08-20T01:02:07;21.00;99.90
7784;DHT22;19359;51.402;6.778;2022-08-20T01:04:36;21.00;99.90
7784;DHT22;19359;51.402;6.778;2022-08-20T01:07:05;21.00;99.90
7784;DHT22;19359;51.402;6.778;2022-08-20T01:09:33;21.00;99.90
7784;DHT22;19359;51.402;6.778;2022-08-20T01:12:01;21.10;99.90
7784;DHT22;19359;51.402;6.778;2022-08-20T01:14:29;21.10;99.90
7784;DHT22;19359;51.402;6.778;2022-08-20T01:17:04;21.00;99.90
7784;DHT22;19359;51.402;6.778;2022-08-20T01:19:37;21.10;99.90
7784;DHT22;19359;51.402;6.778;2022-08-20T01:22:05;21.10;99.90
7784;DHT22;19359;51.402;6.778;2022-08-20T01:24:57;21.00;99.90
7784;DHT22;19359;51.402;6.778;2022-08-20T01:27:27;21.00;99.90
7784;DHT22;19359;51.402;6.778;2022-08-20T01:29:54;21.00;99.90
7784;DHT22;19359;51.402;6.778;2022-08-20T01:32:21;21.00;99.90
7784;DHT22;19359;51.402;6.778;2022-08-20T01:34:48;21.00;99.90
7784;DHT22;19359;51.402;6.778;2022-08-20T01:37:14;21.00;99.90
7784;DHT22;19359;51.402;6.778;2022-08-20T01:39:41;20.90;99.90
7784;DHT22;19359;51.402;6.778;2022-08-20T01:42:11;21.00;99.90
7784;DHT22;19359;51.402;6.778;2022-08-20T01:44:43;20.90;99.90
7784;DHT22;19359;51.402;6.778;2022-08-20T01:47:14;20.90;99.90
7784;DHT22;19359;51.402;6.778;2022-08-20T01:49:44;20.90;99.90
7784;DHT22;19359;51.402;6.778;2022-08-20T01:52:21;20.90;99.90
7784;DHT22;19359;51.402;6.778;2022-08-20T01:54:50;20.90;99.90
7784;DHT22;19359;51.402;6.778;2022-08-20T01:57:23;20.90;99.90
7784;DHT22;19359;51.402;6.778;2022-08-20T01:59:54;20.80;99.90
7784;DHT22;19359;51.402;6.778;2022-08-20T02:02:21;20.80;99.90
7784;DHT22;19359;51.402;6.778;2022-08-20T02:04:49;20.90;99.90
7784;DHT22;19359;51.402;6.778;2022-08-20T02:07:18;20.80;99.90
7784;DHT22;19359;51.402;6.778;2022-08-20T02:09:47;20.90;99.90
7784;DHT22;19359;51.402;6.778;2022-08-20T02:12:14;20.80;99.90
7784;DHT22;19359;51.402;6.778;2022-08-20T02:14:44;20.90;99.90
7784;DHT22;19359;51.402;6.778;2022-08-20T02:17:13;20.90;99.90
7784;DHT22;19359;51.402;6.778;2022-08-20T02:19:42;21.00;99.90
7784;DHT22;19359;51.402;6.778;2022-08-20T02:22:21;20.90;99.90
7784;DHT22;19359;51.402;6.778;2022-08-20T02:24:49;21.00;99.90
7784;DHT22;19359;51.402;6.778;2022-08-20T02:27:17;20.90;99.90
7784;DHT22;19359;51.402;6.778;2022-08-20T02:29:44;21.00;99.90
7784;DHT22;19359;51.402;6.778;2022-08-20T02:32:12;21.00;99.90
7784;DHT22;19359;51.402;6.778;2022-08-20T02:34:39;21.00;99.90
7784;DHT22;19359;51.402;6.778;2022-08-20T02:37:06;21.00;99.90
7784;DHT22;19359;51.402;6.778;2022-08-20T02:39:34;20.90;99.90
7784;DHT22;19359;51.402;6.778;2022-08-20T02:42:01;20.90;99.90
7784;DHT22;19359;51.402;6.778;2022-08-20T02:44:28;20.90;99.90
7784;DHT22;19359;51.402;6.778;2022-08-20T02:46:55;20.90;99.90
7784;DHT22;19359;51.402;6.778;2022-08-20T02:49:23;20.90;99.90
7784;DHT22;19359;51.402;6.778;2022-08-20T02:51:49;20.80;99.90
7784;DHT22;19359;51.402;6.778;2022-08-20T02:54:16;20.90;99.90
7784;DHT22;19359;51.402;6.778;2022-08-20T02:56:43;20.90;99.90
7784;DHT22;19359;51.402;6.778;2022-08-20T02:59:10;20.90;99.90
7784;DHT22;19359;51.402;6.778;2022-08-20T03:01:37;20.70;99.90
7784;DHT22;19359;51.402;6.778;2022-08-20T03:04:04;20.70;99.90
7784;DHT22;19359;51.402;6.778;2022-08-20T03:06:32;20.70;99.90
7784;DHT22;19359;51.402;6.778;2022-08-20T03:08:59;20.70;99.90
7784;DHT22;19359;51.402;6.778;2022-08-20T03:11:27;20.70;99.90
7784;DHT22;19359;51.402;6.778;2022-08-20T03:13:54;20.70;99.90
7784;DHT22;19359;51.402;6.778;2022-08-20T03:16:20;20.70;99.90
7784;DHT22;19359;51.402;6.778;2022-08-20T03:18:47;20.70;99.90
7784;DHT22;19359;51.402;6.778;2022-08-20T03:21:14;20.80;99.90
7784;DHT22;19359;51.402;6.778;2022-08-20T03:23:42;20.70;99.90
7784;DHT22;19359;51.402;6.778;2022-08-20T03:26:11;20.70;99.90
7784;DHT22;19359;51.402;6.778;2022-08-20T03:28:38;20.70;99.90
7784;DHT22;19359;51.402;6.778;2022-08-20T03:31:05;20.70;99.90
7784;DHT22;19359;51.402;6.778;2022-08-20T03:33:32;20.70;99.90
7784;DHT22;19359;51.402;6.778;2022-08-20T03:35:59;20.70;99.90
7784;DHT22;19359;51.402;6.778;2022-08-20T03:38:26;20.70;99.90
7784;DHT22;19359;51.402;6.778;2022-08-20T03:40:54;20.70;99.90
7784;DHT22;19359;51.402;6.778;2022-08-20T03:43:22;20.70;99.90
7784;DHT22;19359;51.402;6.778;2022-08-20T03:45:49;20.60;99.90
7784;DHT22;19359;51.402;6.778;2022-08-20T03:48:18;20.60;99.90
7784;DHT22;19359;51.402;6.778;2022-08-20T03:50:46;20.60;99.90
7784;DHT22;19359;51.402;6.778;2022-08-20T03:53:14;20.60;99.90
7784;DHT22;19359;51.402;6.778;2022-08-20T03:55:43;20.50;99.90
7784;DHT22;19359;51.402;6.778;2022-08-20T03:58:14;20.50;99.90
7784;DHT22;19359;51.402;6.778;2022-08-20T04:00:44;20.50;99.90
7784;DHT22;19359;51.402;6.778;2022-08-20T04:03:12;20.60;99.90
7784;DHT22;19359;51.402;6.778;2022-08-20T04:05:40;20.60;99.90
7784;DHT22;19359;51.402;6.778;2022-08-20T04:08:08;20.60;99.90
7784;DHT22;19359;51.402;6.778;2022-08-20T04:10:35;20.60;99.90
7784;DHT22;19359;51.402;6.778;2022-08-20T04:13:03;20.60;99.90
7784;DHT22;19359;51.402;6.778;2022-08-20T04:15:32;20.60;99.90
7784;DHT22;19359;51.402;6.778;2022-08-20T04:17:59;20.60;99.90
7784;DHT22;19359;51.402;6.778;2022-08-20T04:20:26;20.50;99.90
7784;DHT22;19359;51.402;6.778;2022-08-20T04:22:54;20.60;99.90
7784;DHT22;19359;51.402;6.778;2022-08-20T04:25:21;20.60;99.90
7784;DHT22;19359;51.402;6.778;2022-08-20T04:27:48;20.60;99.90
7784;DHT22;19359;51.402;6.778;2022-08-20T04:30:17;20.60;99.90
7784;DHT22;19359;51.402;6.778;2022-08-20T04:32:46;20.60;99.90
7784;DHT22;19359;51.402;6.778;2022-08-20T04:35:13;20.60;99.90
7784;DHT22;19359;51.402;6.778;2022-08-20T04:37:42;20.60;99.90
7784;DHT22;19359;51.402;6.778;2022-08-20T04:40:14;20.60;99.90
7784;DHT22;19359;51.402;6.778;2022-08-20T04:42:59;20.60;99.90
7784;DHT22;19359;51.402;6.778;2022-08-20T04:45:25;20.60;99.90
7784;DHT22;19359;51.402;6.778;2022-08-20T04:47:53;20.60;99.90
7784;DHT22;19359;51.402;6.778;2022-08-20T04:50:21;20.60;99.90
7784;DHT22;19359;51.402;6.778;2022-08-20T04:52:48;20.60;99.90
7784;DHT22;19359;51.402;6.778;2022-08-20T04:55:16;20.60;99.90
7784;DHT22;19359;51.402;6.778;2022-08-20T04:57:43;20.60;99.90
7784;DHT22;19359;51.402;6.778;2022-08-20T05:00:13;20.60;99.90
7784;DHT22;19359;51.402;6.778;2022-08-20T05:02:41;20.60;99.90
7784;DHT22;19359;51.402;6.778;2022-08-20T05:05:09;20.60;99.90
7784;DHT22;19359;51.402;6.778;2022-08-20T05:07:38;20.60;99.90
7784;DHT22;19359;51.402;6.778;2022-08-20T05:10:06;20.60;99.90
7784;DHT22;19359;51.402;6.778;2022-08-20T05:12:34;20.60;99.90
7784;DHT22;19359;51.402;6.778;2022-08-20T05:15:00;20.70;99.90
7784;DHT22;19359;51.402;6.778;2022-08-20T05:17:27;20.60;99.90
7784;DHT22;19359;51.402;6.778;2022-08-20T05:19:54;20.60;99.90
7784;DHT22;19359;51.402;6.778;2022-08-20T05:22:25;20.70;99.90
7784;DHT22;19359;51.402;6.778;2022-08-20T05:24:52;20.60;99.90
7784;DHT22;19359;51.402;6.778;2022-08-20T05:27:21;20.60;99.90
7784;DHT22;19359;51.402;6.778;2022-08-20T05:29:49;20.60;99.90
7784;DHT22;19359;51.402;6.778;2022-08-20T05:32:17;20.70;99.90
7784;DHT22;19359;51.402;6.778;2022-08-20T05:34:44;20.70;99.90
7784;DHT22;19359;51.402;6.778;2022-08-20T05:37:11;20.80;99.90
7784;DHT22;19359;51.402;6.778;2022-08-20T05:39:39;20.80;99.90
7784;DHT22;19359;51.402;6.778;2022-08-20T05:42:06;20.80;99.90
7784;DHT22;19359;51.402;6.778;2022-08-20T05:44:33;20.80;99.90
7784;DHT22;19359;51.402;6.778;2022-08-20T05:46:59;20.70;99.90
7784;DHT22;19359;51.402;6.778;2022-08-20T05:49:27;20.80;99.90
7784;DHT22;19359;51.402;6.778;2022-08-20T05:51:54;20.80;99.90
7784;DHT22;19359;51.402;6.778;2022-08-20T05:54:21;20.80;99.90
7784;DHT22;19359;51.402;6.778;2022-08-20T05:56:49;20.80;99.90
7784;DHT22;19359;51.402;6.778;2022-08-20T05:59:16;20.80;99.90
7784;DHT22;19359;51.402;6.778;2022-08-20T06:01:43;20.80;99.90
7784;DHT22;19359;51.402;6.778;2022-08-20T06:04:10;20.70;99.90
7784;DHT22;19359;51.402;6.778;2022-08-20T06:06:55;20.70;99.90
7784;DHT22;19359;51.402;6.778;2022-08-20T06:09:23;20.70;99.90
7784;DHT22;19359;51.402;6.778;2022-08-20T06:11:52;20.70;99.90
7784;DHT22;19359;51.402;6.778;2022-08-20T06:14:18;20.70;99.90
7784;DHT22;19359;51.402;6.778;2022-08-20T06:16:46;20.70;99.90
7784;DHT22;19359;51.402;6.778;2022-08-20T06:19:13;20.70;99.90
7784;DHT22;19359;51.402;6.778;2022-08-20T06:21:40;20.60;99.90
7784;DHT22;19359;51.402;6.778;2022-08-20T06:24:07;20.60;99.90
7784;DHT22;19359;51.402;6.778;2022-08-20T06:26:34;20.70;99.90
7784;DHT22;19359;51.402;6.778;2022-08-20T06:29:03;20.80;99.90
7784;DHT22;19359;51.402;6.778;2022-08-20T06:31:30;20.90;99.90
7784;DHT22;19359;51.402;6.778;2022-08-20T06:33:59;21.00;99.90
7784;DHT22;19359;51.402;6.778;2022-08-20T06:36:26;20.90;99.90
7784;DHT22;19359;51.402;6.778;2022-08-20T06:38:52;20.90;99.90
7784;DHT22;19359;51.402;6.778;2022-08-20T06:41:23;21.00;99.90
7784;DHT22;19359;51.402;6.778;2022-08-20T06:43:49;21.00;99.90
7784;DHT22;19359;51.402;6.778;2022-08-20T06:46:20;20.90;99.90
7784;DHT22;19359;51.402;6.778;2022-08-20T06:48:48;20.90;99.90
7784;DHT22;19359;51.402;6.778;2022-08-20T06:51:15;20.80;99.90
7784;DHT22;19359;51.402;6.778;2022-08-20T06:53:41;20.90;99.90
7784;DHT22;19359;51.402;6.778;2022-08-20T06:56:08;20.90;99.90
7784;DHT22;19359;51.402;6.778;2022-08-20T06:58:36;20.70;99.90
7784;DHT22;19359;51.402;6.778;2022-08-20T07:01:02;20.60;99.90
7784;DHT22;19359;51.402;6.778;2022-08-20T07:03:31;20.50;99.90
7784;DHT22;19359;51.402;6.778;2022-08-20T07:05:57;20.50;99.90
7784;DHT22;19359;51.402;6.778;2022-08-20T07:08:25;20.50;99.90
7784;DHT22;19359;51.402;6.778;2022-08-20T07:10:51;20.50;99.90
7784;DHT22;19359;51.402;6.778;2022-08-20T07:13:18;20.60;99.90
7784;DHT22;19359;51.402;6.778;2022-08-20T07:15:45;20.60;99.90
7784;DHT22;19359;51.402;6.778;2022-08-20T07:18:12;20.60;99.90
7784;DHT22;19359;51.402;6.778;2022-08-20T07:20:41;20.60;99.90
7784;DHT22;19359;51.402;6.778;2022-08-20T07:23:09;20.50;99.90
7784;DHT22;19359;51.402;6.778;2022-08-20T07:25:37;20.50;99.90
7784;DHT22;19359;51.402;6.778;2022-08-20T07:28:07;20.80;99.90
7784;DHT22;19359;51.402;6.778;2022-08-20T07:30:35;20.80;99.90
7784;DHT22;19359;51.402;6.778;2022-08-20T07:33:19;20.90;99.90
7784;DHT22;19359;51.402;6.778;2022-08-20T07:35:48;21.20;99.90
7784;DHT22;19359;51.402;6.778;2022-08-20T07:38:16;20.90;99.90
7784;DHT22;19359;51.402;6.778;2022-08-20T07:40:50;20.90;99.90
7784;DHT22;19359;51.402;6.778;2022-08-20T07:45:47;20.90;99.90
7784;DHT22;19359;51.402;6.778;2022-08-20T07:48:15;20.70;99.90
7784;DHT22;19359;51.402;6.778;2022-08-20T07:50:41;20.60;99.90
7784;DHT22;19359;51.402;6.778;2022-08-20T07:53:10;20.60;99.90
7784;DHT22;19359;51.402;6.778;2022-08-20T07:55:37;20.60;99.90
7784;DHT22;19359;51.402;6.778;2022-08-20T07:58:08;20.50;99.90
7784;DHT22;19359;51.402;6.778;2022-08-20T08:00:35;20.50;99.90
7784;DHT22;19359;51.402;6.778;2022-08-20T08:03:04;20.50;99.90
7784;DHT22;19359;51.402;6.778;2022-08-20T08:05:32;20.50;99.90
7784;DHT22;19359;51.402;6.778;2022-08-20T08:08:00;20.50;99.90
7784;DHT22;19359;51.402;6.778;2022-08-20T08:10:29;20.60;99.90
7784;DHT22;19359;51.402;6.778;2022-08-20T08:12:59;20.40;99.90
7784;DHT22;19359;51.402;6.778;2022-08-20T08:15:29;20.50;99.90
7784;DHT22;19359;51.402;6.778;2022-08-20T08:18:00;20.50;99.90
7784;DHT22;19359;51.402;6.778;2022-08-20T08:20:30;20.60;99.90
7784;DHT22;19359;51.402;6.778;2022-08-20T08:22:58;20.60;99.90
7784;DHT22;19359;51.402;6.778;2022-08-20T08:25:25;20.70;99.90
7784;DHT22;19359;51.402;6.778;2022-08-20T08:27:53;20.60;99.90
7784;DHT22;19359;51.402;6.778;2022-08-20T08:30:20;20.60;99.90
7784;DHT22;19359;51.402;6.778;2022-08-20T08:32:47;20.50;99.90
7784;DHT22;19359;51.402;6.778;2022-08-20T08:35:31;20.50;99.90
7784;DHT22;19359;51.402;6.778;2022-08-20T08:37:59;20.30;99.90
7784;DHT22;19359;51.402;6.778;2022-08-20T08:40:28;20.30;99.90
7784;DHT22;19359;51.402;6.778;2022-08-20T08:42:58;20.20;99.90
7784;DHT22;19359;51.402;6.778;2022-08-20T08:45:30;20.40;99.90
7784;DHT22;19359;51.402;6.778;2022-08-20T08:47:59;20.50;99.90
7784;DHT22;19359;51.402;6.778;2022-08-20T08:50:29;20.80;99.90
7784;DHT22;19359;51.402;6.778;2022-08-20T08:52:59;20.80;99.90
7784;DHT22;19359;51.402;6.778;2022-08-20T08:55:28;21.10;99.90
7784;DHT22;19359;51.402;6.778;2022-08-20T08:57:58;21.50;99.90
7784;DHT22;19359;51.402;6.778;2022-08-20T09:00:26;21.50;99.90
7784;DHT22;19359;51.402;6.778;2022-08-20T09:02:57;21.90;99.90
7784;DHT22;19359;51.402;6.778;2022-08-20T09:05:29;21.90;99.90
7784;DHT22;19359;51.402;6.778;2022-08-20T09:07:58;21.90;99.90
7784;DHT22;19359;51.402;6.778;2022-08-20T09:10:28;22.00;99.90
7784;DHT22;19359;51.402;6.778;2022-08-20T09:12:56;22.10;99.90
7784;DHT22;19359;51.402;6.778;2022-08-20T09:15:23;22.10;99.90
7784;DHT22;19359;51.402;6.778;2022-08-20T09:17:50;22.20;99.90
7784;DHT22;19359;51.402;6.778;2022-08-20T09:20:17;22.20;99.90
7784;DHT22;19359;51.402;6.778;2022-08-20T09:22:44;22.40;99.90
7784;DHT22;19359;51.402;6.778;2022-08-20T09:25:11;22.50;99.90
7784;DHT22;19359;51.402;6.778;2022-08-20T09:27:38;22.50;99.90
7784;DHT22;19359;51.402;6.778;2022-08-20T09:30:07;22.60;99.90
7784;DHT22;19359;51.402;6.778;2022-08-20T09:32:34;22.60;99.90
7784;DHT22;19359;51.402;6.778;2022-08-20T09:35:01;23.00;99.90
7784;DHT22;19359;51.402;6.778;2022-08-20T09:37:30;23.00;99.90
7784;DHT22;19359;51.402;6.778;2022-08-20T09:39:57;23.10;99.90
7784;DHT22;19359;51.402;6.778;2022-08-20T09:42:28;22.90;99.90
7784;DHT22;19359;51.402;6.778;2022-08-20T09:44:55;22.90;99.90
7784;DHT22;19359;51.402;6.778;2022-08-20T09:47:24;22.60;99.90
7784;DHT22;19359;51.402;6.778;2022-08-20T09:49:52;22.40;99.90
7784;DHT22;19359;51.402;6.778;2022-08-20T09:52:21;22.30;99.90
7784;DHT22;19359;51.402;6.778;2022-08-20T09:54:49;22.20;99.90
7784;DHT22;19359;51.402;6.778;2022-08-20T09:57:17;22.20;99.90
7784;DHT22;19359;51.402;6.778;2022-08-20T09:59:47;22.20;99.90
7784;DHT22;19359;51.402;6.778;2022-08-20T10:02:16;22.30;99.90
7784;DHT22;19359;51.402;6.778;2022-08-20T10:04:44;22.70;99.90
7784;DHT22;19359;51.402;6.778;2022-08-20T10:07:11;22.70;99.90
7784;DHT22;19359;51.402;6.778;2022-08-20T10:09:38;22.80;99.90
7784;DHT22;19359;51.402;6.778;2022-08-20T10:12:05;22.50;99.90
7784;DHT22;19359;51.402;6.778;2022-08-20T10:14:32;22.20;99.90
7784;DHT22;19359;51.402;6.778;2022-08-20T10:17:00;22.10;99.90
7784;DHT22;19359;51.402;6.778;2022-08-20T10:19:28;22.20;99.90
7784;DHT22;19359;51.402;6.778;2022-08-20T10:21:57;22.10;99.90
7784;DHT22;19359;51.402;6.778;2022-08-20T10:24:25;22.00;99.90
7784;DHT22;19359;51.402;6.778;2022-08-20T10:26:54;22.20;99.90
7784;DHT22;19359;51.402;6.778;2022-08-20T10:29:21;22.20;99.90
7784;DHT22;19359;51.402;6.778;2022-08-20T10:31:48;22.30;99.90
7784;DHT22;19359;51.402;6.778;2022-08-20T10:34:15;22.60;99.90
7784;DHT22;19359;51.402;6.778;2022-08-20T10:36:42;22.80;99.90
7784;DHT22;19359;51.402;6.778;2022-08-20T10:39:10;22.90;99.90
7784;DHT22;19359;51.402;6.778;2022-08-20T10:41:37;22.90;99.90
7784;DHT22;19359;51.402;6.778;2022-08-20T10:44:04;22.70;99.90
7784;DHT22;19359;51.402;6.778;2022-08-20T10:46:30;22.70;99.90
7784;DHT22;19359;51.402;6.778;2022-08-20T10:48:57;22.80;99.90
7784;DHT22;19359;51.402;6.778;2022-08-20T10:51:24;22.80;99.90
7784;DHT22;19359;51.402;6.778;2022-08-20T10:53:51;22.70;99.90
7784;DHT22;19359;51.402;6.778;2022-08-20T10:56:19;22.70;99.90
7784;DHT22;19359;51.402;6.778;2022-08-20T10:58:46;22.70;99.90
7784;DHT22;19359;51.402;6.778;2022-08-20T11:01:13;22.80;99.90
7784;DHT22;19359;51.402;6.778;2022-08-20T11:03:39;23.00;99.90
7784;DHT22;19359;51.402;6.778;2022-08-20T11:06:06;23.20;99.90
7784;DHT22;19359;51.402;6.778;2022-08-20T11:08:33;23.20;99.90
7784;DHT22;19359;51.402;6.778;2022-08-20T11:11:00;23.10;99.90
7784;DHT22;19359;51.402;6.778;2022-08-20T11:13:28;22.90;99.90
7784;DHT22;19359;51.402;6.778;2022-08-20T11:15:55;23.00;99.90
7784;DHT22;19359;51.402;6.778;2022-08-20T11:18:22;23.10;99.90
7784;DHT22;19359;51.402;6.778;2022-08-20T11:20:49;23.30;99.90
7784;DHT22;19359;51.402;6.778;2022-08-20T11:23:16;23.20;99.90
7784;DHT22;19359;51.402;6.778;2022-08-20T11:25:43;23.20;99.90
7784;DHT22;19359;51.402;6.778;2022-08-20T11:28:10;23.20;99.90
7784;DHT22;19359;51.402;6.778;2022-08-20T11:30:38;23.80;99.90
7784;DHT22;19359;51.402;6.778;2022-08-20T11:33:05;24.30;99.90
7784;DHT22;19359;51.402;6.778;2022-08-20T11:35:34;24.70;99.90
7784;DHT22;19359;51.402;6.778;2022-08-20T11:38:02;24.70;99.90
7784;DHT22;19359;51.402;6.778;2022-08-20T11:40:30;24.70;99.90
7784;DHT22;19359;51.402;6.778;2022-08-20T11:42:57;24.80;99.90
7784;DHT22;19359;51.402;6.778;2022-08-20T11:45:24;24.80;99.90
7784;DHT22;19359;51.402;6.778;2022-08-20T11:47:52;24.90;99.90
7784;DHT22;19359;51.402;6.778;2022-08-20T11:50:19;25.20;99.90
7784;DHT22;19359;51.402;6.778;2022-08-20T11:52:46;25.20;99.90
7784;DHT22;19359;51.402;6.778;2022-08-20T11:55:15;25.50;99.90
7784;DHT22;19359;51.402;6.778;2022-08-20T11:57:44;25.90;99.90
7784;DHT22;19359;51.402;6.778;2022-08-20T12:00:13;25.90;99.90
7784;DHT22;19359;51.402;6.778;2022-08-20T12:02:41;26.20;99.90
7784;DHT22;19359;51.402;6.778;2022-08-20T12:05:10;26.00;99.90
7784;DHT22;19359;51.402;6.778;2022-08-20T12:07:37;26.30;99.90
7784;DHT22;19359;51.402;6.778;2022-08-20T12:10:04;26.60;99.90
7784;DHT22;19359;51.402;6.778;2022-08-20T12:12:31;26.70;99.90
7784;DHT22;19359;51.402;6.778;2022-08-20T12:14:58;26.90;99.90
7784;DHT22;19359;51.402;6.778;2022-08-20T12:17:27;26.90;99.90
7784;DHT22;19359;51.402;6.778;2022-08-20T12:19:56;27.10;99.90
7784;DHT22;19359;51.402;6.778;2022-08-20T12:22:25;27.50;99.90
7784;DHT22;19359;51.402;6.778;2022-08-20T12:24:52;27.20;99.90
7784;DHT22;19359;51.402;6.778;2022-08-20T12:27:21;26.20;99.90
7784;DHT22;19359;51.402;6.778;2022-08-20T12:29:49;26.40;99.90
7784;DHT22;19359;51.402;6.778;2022-08-20T12:32:18;26.40;99.90
7784;DHT22;19359;51.402;6.778;2022-08-20T12:34:45;27.30;99.90
7784;DHT22;19359;51.402;6.778;2022-08-20T12:37:13;27.60;99.90
7784;DHT22;19359;51.402;6.778;2022-08-20T12:39:49;27.70;99.90
7784;DHT22;19359;51.402;6.778;2022-08-20T12:42:16;27.60;99.90
7784;DHT22;19359;51.402;6.778;2022-08-20T12:44:43;27.50;99.90
7784;DHT22;19359;51.402;6.778;2022-08-20T12:47:12;27.70;99.90
7784;DHT22;19359;51.402;6.778;2022-08-20T12:49:42;27.70;99.90
7784;DHT22;19359;51.402;6.778;2022-08-20T12:52:11;27.30;99.90
7784;DHT22;19359;51.402;6.778;2022-08-20T12:54:38;26.90;99.90
7784;DHT22;19359;51.402;6.778;2022-08-20T12:57:13;26.90;99.90
7784;DHT22;19359;51.402;6.778;2022-08-20T12:59:39;26.60;99.90
7784;DHT22;19359;51.402;6.778;2022-08-20T13:02:06;26.10;99.90
7784;DHT22;19359;51.402;6.778;2022-08-20T13:04:33;26.00;99.90
7784;DHT22;19359;51.402;6.778;2022-08-20T13:07:00;25.70;99.90
7784;DHT22;19359;51.402;6.778;2022-08-20T13:09:27;25.50;99.90
7784;DHT22;19359;51.402;6.778;2022-08-20T13:11:54;25.50;99.90
7784;DHT22;19359;51.402;6.778;2022-08-20T13:14:22;25.20;99.90
7784;DHT22;19359;51.402;6.778;2022-08-20T13:16:54;25.30;99.90
7784;DHT22;19359;51.402;6.778;2022-08-20T13:19:21;25.40;99.90
7784;DHT22;19359;51.402;6.778;2022-08-20T13:21:47;25.90;99.90
7784;DHT22;19359;51.402;6.778;2022-08-20T13:24:14;26.40;99.90
7784;DHT22;19359;51.402;6.778;2022-08-20T13:26:41;27.30;99.90
7784;DHT22;19359;51.402;6.778;2022-08-20T13:29:08;27.60;99.90
7784;DHT22;19359;51.402;6.778;2022-08-20T13:31:36;26.60;99.90
7784;DHT22;19359;51.402;6.778;2022-08-20T13:34:03;26.50;99.90
7784;DHT22;19359;51.402;6.778;2022-08-20T13:36:30;26.00;99.90
7784;DHT22;19359;51.402;6.778;2022-08-20T13:38:57;25.10;99.90
7784;DHT22;19359;51.402;6.778;2022-08-20T13:41:24;24.80;99.90
7784;DHT22;19359;51.402;6.778;2022-08-20T13:43:50;24.90;99.90
7784;DHT22;19359;51.402;6.778;2022-08-20T13:46:17;24.90;99.90
7784;DHT22;19359;51.402;6.778;2022-08-20T13:48:45;24.80;99.90
7784;DHT22;19359;51.402;6.778;2022-08-20T13:51:12;25.60;99.90
7784;DHT22;19359;51.402;6.778;2022-08-20T13:53:39;25.70;99.90
7784;DHT22;19359;51.402;6.778;2022-08-20T13:56:06;25.50;99.90
7784;DHT22;19359;51.402;6.778;2022-08-20T13:58:33;25.10;99.90
7784;DHT22;19359;51.402;6.778;2022-08-20T14:00:59;25.00;99.90
7784;DHT22;19359;51.402;6.778;2022-08-20T14:03:26;25.00;99.90
7784;DHT22;19359;51.402;6.778;2022-08-20T14:05:54;25.10;99.90
7784;DHT22;19359;51.402;6.778;2022-08-20T14:08:22;25.10;99.90
7784;DHT22;19359;51.402;6.778;2022-08-20T14:10:49;25.30;99.90
7784;DHT22;19359;51.402;6.778;2022-08-20T14:13:18;25.50;99.90
7784;DHT22;19359;51.402;6.778;2022-08-20T14:15:45;25.80;99.90
7784;DHT22;19359;51.402;6.778;2022-08-20T14:18:13;25.80;99.90
7784;DHT22;19359;51.402;6.778;2022-08-20T14:20:41;26.80;99.90
7784;DHT22;19359;51.402;6.778;2022-08-20T14:23:09;28.50;99.90
7784;DHT22;19359;51.402;6.778;2022-08-20T14:25:36;29.50;99.90
7784;DHT22;19359;51.402;6.778;2022-08-20T14:28:09;29.60;99.90
7784;DHT22;19359;51.402;6.778;2022-08-20T14:30:36;30.30;99.90
7784;DHT22;19359;51.402;6.778;2022-08-20T14:33:03;30.30;99.90
7784;DHT22;19359;51.402;6.778;2022-08-20T14:35:30;30.90;99.90
7784;DHT22;19359;51.402;6.778;2022-08-20T14:37:58;30.90;99.90
7784;DHT22;19359;51.402;6.778;2022-08-20T14:40:27;30.60;99.90
7784;DHT22;19359;51.402;6.778;2022-08-20T14:42:54;30.10;99.90
7784;DHT22;19359;51.402;6.778;2022-08-20T14:45:22;29.50;99.90
7784;DHT22;19359;51.402;6.778;2022-08-20T14:47:51;28.30;99.90
7784;DHT22;19359;51.402;6.778;2022-08-20T14:50:21;28.30;99.90
7784;DHT22;19359;51.402;6.778;2022-08-20T14:52:49;29.90;99.90
7784;DHT22;19359;51.402;6.778;2022-08-20T14:55:18;30.00;99.90
7784;DHT22;19359;51.402;6.778;2022-08-20T14:57:48;30.60;99.90
7784;DHT22;19359;51.402;6.778;2022-08-20T15:00:19;31.00;99.90
7784;DHT22;19359;51.402;6.778;2022-08-20T15:02:46;31.90;99.90
7784;DHT22;19359;51.402;6.778;2022-08-20T15:05:14;32.10;99.90
7784;DHT22;19359;51.402;6.778;2022-08-20T15:07:43;32.10;99.90
7784;DHT22;19359;51.402;6.778;2022-08-20T15:10:14;31.80;99.90
7784;DHT22;19359;51.402;6.778;2022-08-20T15:12:41;31.80;99.90
7784;DHT22;19359;51.402;6.778;2022-08-20T15:15:11;31.70;99.90
7784;DHT22;19359;51.402;6.778;2022-08-20T15:17:42;31.40;99.90
7784;DHT22;19359;51.402;6.778;2022-08-20T15:20:10;31.40;99.90
7784;DHT22;19359;51.402;6.778;2022-08-20T15:22:38;31.90;99.90
7784;DHT22;19359;51.402;6.778;2022-08-20T15:25:07;32.20;99.90
7784;DHT22;19359;51.402;6.778;2022-08-20T15:27:34;32.30;99.90
7784;DHT22;19359;51.402;6.778;2022-08-20T15:30:03;32.30;99.90
7784;DHT22;19359;51.402;6.778;2022-08-20T15:32:31;32.30;99.90
7784;DHT22;19359;51.402;6.778;2022-08-20T15:34:58;33.10;99.90
7784;DHT22;19359;51.402;6.778;2022-08-20T15:37:25;32.80;99.90
7784;DHT22;19359;51.402;6.778;2022-08-20T15:39:52;31.60;99.90
7784;DHT22;19359;51.402;6.778;2022-08-20T15:42:20;31.30;99.90
7784;DHT22;19359;51.402;6.778;2022-08-20T15:44:48;31.40;99.90
7784;DHT22;19359;51.402;6.778;2022-08-20T15:47:21;31.20;99.90
7784;DHT22;19359;51.402;6.778;2022-08-20T15:49:54;29.20;99.90
7784;DHT22;19359;51.402;6.778;2022-08-20T15:52:22;29.20;99.90